Weather observations for the past three days for
Monticello White County Airport
Metric (Imperial)
Date Time (edt) Wind (kph) Vis. (km) Weather Sky Cond. Temperature (ºC) Relative Humidity Wind Chill (°C) Heat Index (°C) Pressure Precipitation (cm)
Air Dwpt 6 hour altimeter (cm) sea level (mb) 1 hr 3 hr 6 hr
Max. Min.
02 08:55 S 7 16.09 Fair CLR 24.4 21 81% 25 76.3 0.0
02 08:35 S 6 16.09 Fair CLR 23.7 20.6 83% 76.3 0.0
02 08:15 S 7 16.09 Fair CLR 23.3 20.3 83% 76.3 0.0
02 07:55 S 6 16.09 Fair CLR 23 20.2 25 22.3 84% 76.28 0.0
02 07:35 S 7 16.09 Fair CLR 22.8 20.2 85% 76.28 0.0
02 07:15 S 7 16.09 Fair CLR 22.5 20.2 87% 76.28 0.0
02 06:55 SW 6 16.09 Fair CLR 22.5 20.3 87% 76.28 0.0
02 06:35 S 7 16.09 Fair CLR 22.6 20.5 88% 76.25 0.0
02 06:15 S 7 16.09 Fair CLR 22.8 20.5 87% 76.25 0.0
02 05:55 S 9 16.09 Fair CLR 22.8 20.5 87% 76.23 0.0
02 05:35 S 7 16.09 Fair CLR 22.6 20.5 88% 76.23 0.0
02 05:15 S 7 16.09 Fair CLR 23.1 20.6 86% 76.23 0.0
02 04:55 S 7 16.09 Fair CLR 23.5 20.6 84% 76.23 0.0
02 04:15 SW 7 16.09 Fair CLR 23.2 20.9 87% 76.23 0.0
02 03:55 S 6 16.09 Fair CLR 24.1 21.1 83% 24 76.23 0.0
02 03:35 Calm 16.09 Fair CLR 23.6 21 85% 76.2 0.0
02 03:15 S 9 16.09 Fair CLR 24.1 21.4 85% 24 76.2 0.0
02 02:55 S 6 16.09 Fair CLR 24.5 21.7 84% 25 76.2 0.0
02 02:35 S 7 16.09 Fair CLR 24 21.6 87% 24 76.23 0.0
02 02:15 S 7 16.09 Fair CLR 24.9 22 84% 26 76.23 0.0
02 01:55 S 6 16.09 Fair CLR 24.2 22 30.5 23.6 88% 24 76.23 0.0
02 01:35 S 6 16.09 Fair CLR 23.6 21.6 89% 76.23 0.0
02 01:15 Calm 16.09 Fair CLR 24.4 21.9 86% 25 76.2 0.0
02 00:55 S 6 16.09 Fair CLR 24.5 21.8 85% 25 76.23 0.0
02 00:35 S 6 16.09 Fair CLR 24.5 22 86% 25 76.2 0.0
02 00:15 S 6 16.09 Fair CLR 25.1 22.2 84% 26 76.23 0.0
01 23:55 S 7 16.09 Fair CLR 25.1 22.2 84% 26 76.23 0.0
01 23:35 S 6 16.09 Fair CLR 25.7 22.5 83% 27 76.23 0.0
01 23:15 S 6 16.09 Fair CLR 25.8 22.5 82% 27 76.23 0.0
01 22:55 S 6 16.09 Fair CLR 26 22.7 82% 28 76.23 0.0
01 22:35 S 7 16.09 Fair CLR 26.6 22.8 80% 29 76.23 0.0
01 22:15 S 7 16.09 Fair CLR 26.5 23 81% 29 76.2 0.0
01 21:55 S 7 16.09 Partly Cloudy SCT095 27.4 23.2 78% 30 76.2 0.0
01 21:35 S 6 16.09 Partly Cloudy SCT085 28 23.2 75% 31 76.2 0.0
01 21:15 Calm 16.09 Partly Cloudy SCT085 28.6 23.2 73% 32 76.17 0.0
01 20:55 Calm 16.09 Fair CLR 28.6 23.2 73% 32 76.17 0.0
01 20:35 S 6 16.09 Fair CLR 29.3 23.3 70% 33 76.17 0.0
01 20:15 S 6 16.09 Fair CLR 29.8 23.5 69% 34 76.17 0.0
01 19:55 S 7 16.09 Fair CLR 30.6 23.6 33.8 30.6 66% 36 76.17 0.0
01 19:35 S 9 16.09 Fair CLR 31.2 23.4 63% 36 76.17 0.0
01 19:15 SW 9 16.09 Fair CLR 32 23.2 60% 37 76.17 0.0
01 18:55 SW 11 16.09 Fair CLR 32.5 22.6 56% 37 76.17 0.0
01 18:35 SW 11 16.09 Fair CLR 33 23 56% 38 76.17 0.0
01 18:15 SW 11 16.09 Fair CLR 33.2 23.2 56% 39 76.17 0.0
01 17:55 SW 15 16.09 Fair CLR 33.3 23 55% 38 76.17 0.0
01 17:35 SW 11 16.09 Fair CLR 33.5 22.9 54% 39 76.17 0.0
01 17:15 SW 15 16.09 Fair CLR 33.5 22.6 53% 38 76.17 0.0
01 16:55 SW 11 16.09 Fair CLR 33.7 23.1 54% 39 76.17 0.0
01 16:35 SW 11 16.09 Fair CLR 33.6 22.6 53% 38 76.17 0.0
01 16:15 SW 11 16.09 Fair CLR 33.5 22.8 53% 38 76.17 0.0
01 15:55 SW 13 16.09 Fair CLR 33.5 22.8 53% 38 76.2 0.0
01 15:35 SW 11 16.09 Fair CLR 33.1 22.7 54% 38 76.2 0.0
01 15:15 SW 13 16.09 Fair CLR 32.7 22.4 55% 37 76.23 0.0
01 14:55 W 15 16.09 Fair CLR 33 22.5 54% 37 76.23 0.0
01 14:35 SW 11 16.09 Fair CLR 32.6 22.3 55% 37 76.23 0.0
01 14:15 SW 13 16.09 Fair CLR 32.5 22.7 56% 37 76.23 0.0
01 13:55 SW 13 16.09 Fair CLR 31.8 22.1 32 22.5 56% 36 76.23 0.0
01 13:35 SW 11 16.09 Fair CLR 31.9 22.3 57% 36 76.23 0.0
01 13:15 W 13 16.09 Fair CLR 31.4 21.9 57% 35 76.25 0.0
01 12:55 SW 11 16.09 Fair CLR 30.8 22 59% 34 76.25 0.0
01 12:35 SW 13 16.09 Fair CLR 29.9 21.8 62% 33 76.28 0.0
01 12:15 SW 11 16.09 Fair CLR 29.4 21.6 63% 32 76.28 0.0
01 11:55 SW 13 16.09 Fair CLR 29 21.1 62% 31 76.28 0.0
01 11:35 SW 15 16.09 Fair CLR 28.9 21.1 63% 31 76.28 0.0
01 11:15 SW 11 16.09 Fair CLR 28.6 20.9 63% 31 76.28 0.0
01 10:55 SW 11 16.09 Fair CLR 28.2 20.8 64% 30 76.28 0.0
01 10:35 SW 15 16.09 Fair CLR 27.8 20.9 66% 30 76.28 0.0
01 10:15 SW 11 16.09 Fair CLR 27.1 20.8 69% 29 76.28 0.0
01 09:55 S 15 16.09 Fair CLR 26.2 20.9 73% 28 76.28 0.0
01 09:35 S 11 16.09 Fair CLR 25.4 20.7 75% 27 76.28 0.0
01 09:15 S 7 16.09 Fair CLR 24.6 20.6 78% 25 76.3 0.0
01 08:55 S 6 16.09 Fair CLR 24 20.3 80% 24 76.3 0.0
01 08:35 S 6 16.09 Fair CLR 23.4 20 81% 76.28 0.0
01 08:15 S 7 16.09 Fair CLR 22.7 20 85% 76.28 0.0
01 07:55 S 7 16.09 Fair CLR 22.4 19.8 24.6 21.6 85% 76.25 0.0
01 07:35 S 7 16.09 Fair CLR 21.8 19.5 87% 76.25 0.0
01 07:15 Calm 16.09 Fair CLR 21.6 19.3 87% 76.23 0.0
01 06:55 Calm 16.09 Fair CLR 22 19.3 85% 76.23 0.0
01 06:35 S 6 16.09 Fair CLR 22.6 19.5 83% 76.23 0.0
01 06:15 SW 7 16.09 Fair CLR 23 19.5 81% 76.23 0.0
01 05:55 SW 7 16.09 Fair CLR 23 19.3 80% 76.23 0.0
01 05:35 SW 7 16.09 Fair CLR 22.7 19.3 81% 76.23 0.0
01 05:15 S 7 16.09 Fair CLR 22.8 19.2 80% 76.23 0.0
01 04:55 S 9 16.09 Fair CLR 23 19 78% 76.2 0.0
01 04:35 SW 9 16.09 Fair CLR 23.1 18.7 76% 76.2 0.0
01 04:15 S 9 16.09 Fair CLR 23.1 18.5 75% 76.2 0.0
01 03:55 SW 9 16.09 Fair CLR 23.3 18.3 74% 76.17 0.0
01 03:35 S 11 16.09 Fair CLR 23.5 18.2 72% 76.17 0.0
01 03:15 S 9 16.09 Fair CLR 23.6 18.1 71% 76.17 0.0
01 02:55 S 9 16.09 Fair CLR 23.6 18 71% 76.17 0.0
01 02:35 S 7 16.09 Fair CLR 24 18 69% 25 76.17 0.0
01 02:15 S 9 16.09 Fair CLR 24.2 18 68% 25 76.2 0.0
01 01:55 S 11 16.09 Fair CLR 24.6 18 28.9 24.4 67% 26 76.2 0.0
01 01:35 S 13 16.09 Fair CLR 24.8 18 66% 26 76.17 0.0
01 01:15 S 11 16.09 Fair CLR 24.8 18.2 67% 26 76.17 0.0
01 00:55 S 13 16.09 Fair CLR 24.6 18.5 69% 26 76.17 0.0
01 00:35 SW 9 16.09 Fair CLR 24.6 18.6 69% 26 76.2 0.0
01 00:15 SW 9 16.09 Fair CLR 24.8 18.7 69% 26 76.17 0.0
31 23:55 SW 7 16.09 Fair CLR 24.4 19 72% 25 76.17 0.0
31 23:35 S 7 16.09 Fair CLR 24.9 19.2 71% 26 76.2 0.0
31 23:15 S 11 16.09 Fair CLR 25.6 19.2 68% 27 76.17 0.0
31 22:55 S 7 16.09 Fair CLR 25 19.5 72% 26 76.2 0.0
31 22:35 S 7 16.09 Fair CLR 24.6 19.5 73% 25 76.2 0.0
31 22:15 SE 6 16.09 Partly Cloudy SCT110 26.3 19.2 65% 27 76.23 0.0
31 21:55 SE 6 16.09 Mostly Cloudy BKN110 26.5 19.1 64% 28 76.23 0.0
31 21:35 S 6 16.09 Partly Cloudy SCT120 27 18.5 60% 28 76.23 0.0
31 21:15 S 7 16.09 Partly Cloudy SCT120 27.1 18.6 60% 28 76.2 0.0
31 20:55 S 6 16.09 Partly Cloudy SCT120 27.9 18.2 56% 29 76.17 0.0
31 20:35 Calm 16.09 Partly Cloudy SCT120 27.7 18.5 57% 29 76.17 0.0
31 20:15 S 6 16.09 Fair CLR 28.2 18.6 56% 29 76.17 0.0
31 19:55 S 7 16.09 Fair CLR 28.9 18.8 32.6 28.9 54% 30 76.17 0.0
31 19:35 S 11 16.09 Fair CLR 29.6 19 53% 31 76.15 0.0
31 19:15 S 13 16.09 Fair CLR 30.2 19 51% 32 76.12 0.0
31 18:55 S 17 16.09 Fair CLR 30.7 19.2 50% 32 76.15 0.0
31 18:35 S 15 G 26 16.09 Fair CLR 31 19.2 49% 33 76.15 0.0
31 18:15 S 19 G 26 16.09 Fair CLR 31.6 19.6 49% 33 76.15 0.0
31 17:55 S 17 16.09 Fair CLR 31.9 19 46% 33 76.15 0.0
31 17:35 S 24 16.09 Fair CLR 32.2 19.8 48% 34 76.17 0.0
31 17:15 S 20 G 28 16.09 Fair CLR 32.3 19.5 47% 34 76.17 0.0
31 16:55 S 22 G 31 16.09 Fair CLR 32.4 19 45% 34 76.17 0.0
31 16:35 S 24 G 31 16.09 Fair CLR 32.6 19.6 46% 35 76.17 0.0
31 16:15 S 19 G 26 16.09 Fair CLR 32.2 19.9 48% 34 76.17 0.0
31 15:55 SW 22 16.09 Fair CLR 31.9 19.6 48% 34 76.2 0.0
31 15:35 S 20 16.09 Fair CLR 32.1 19.5 47% 34 76.23 0.0
31 15:15 S 17 16.09 Fair CLR 32.1 19.7 48% 34 76.25 0.0
31 14:55 S 22 16.09 Fair CLR 32.2 19.6 47% 34 76.28 0.0
31 14:35 S 19 16.09 Fair CLR 31.9 19.9 49% 34 76.28 0.0
31 14:15 S 19 G 26 16.09 Fair CLR 31.5 20.1 51% 34 76.3 0.0
31 13:55 S 13 16.09 Fair CLR 31.1 19.5 31.1 22.2 50% 33 76.3 0.0
31 13:35 S 17 16.09 Fair CLR 30.7 19.5 51% 32 76.33 0.0
31 13:15 SW 15 16.09 Fair CLR 30.1 19.3 52% 32 76.35 0.0
31 12:55 Calm 16.09 Fair CLR 28 20 62% 30 76.38 0.0
31 12:35 Calm 16.09 Fair CLR 28 18.9 58% 29 76.38 0.0
31 12:15 Calm 16.09 Fair CLR 27.7 18.8 58% 29 76.38 0.0
31 11:55 Calm 16.09 Fair CLR 26.9 19.8 65% 28 76.38 0.0
31 11:35 Calm 16.09 Fair CLR 26.7 19.5 65% 28 76.38 0.0
31 11:15 Calm 16.09 Fair CLR 25.5 19.4 69% 27 76.38 0.0
31 10:55 Calm 16.09 Fair CLR 25.7 19.6 69% 27 76.38 0.0
31 10:35 Calm 16.09 Fair CLR 25 19.3 71% 26 76.38 0.0
31 10:15 Calm 16.09 Partly Cloudy SCT120 23.8 19.1 75% 76.35 0.0
31 09:55 Calm 16.09 Fair CLR 23.5 18.6 74% 76.35 0.0
31 09:35 Calm 16.09 Fair CLR 23.1 18.3 74% 76.33 0.0
31 09:15 Calm 16.09 Fair CLR 22.6 18 75% 76.35 0.0
31 08:55 Calm 16.09 Fair CLR 22.6 17.8 74% 76.33 0.0
31 08:35 Calm 16.09 Fair CLR 22.5 17.7 74% 76.3 0.0
31 08:15 Calm 16.09 Fair CLR 22.5 17.6 74% 76.28 0.0
31 07:55 Calm 16.09 Fair CLR 22.1 17.7 23.7 22 76% 76.28 0.0
31 07:35 Calm 16.09 Fair CLR 22.5 17.8 75% 76.25 0.0
31 07:15 Calm 16.09 Fair CLR 22.3 17.7 75% 76.25 0.0
31 06:55 Calm 16.09 Partly Cloudy SCT120 22.3 17.9 76% 76.25 0.0
31 06:35 Calm 16.09 Fair CLR 22.7 17.9 74% 76.25 0.0
31 06:15 S 11 16.09 Fair CLR 22.9 17.8 73% 76.25 0.0
31 05:55 Calm 16.09 Fair CLR 22.6 18 75% 76.25 0.0
31 05:35 Calm 16.09 Fair CLR 22.6 18.1 76% 76.25 0.0
31 05:15 S 6 16.09 Fair CLR 23.1 18.2 74% 76.25 0.0
31 04:55 S 7 16.09 Fair CLR 22.8 18.8 78% 76.28 0.0
31 04:35 Calm 16.09 Fair CLR 23.5 19 76% 76.25 0.0
31 04:15 SE 7 16.09 Fair CLR 23.6 18.6 74% 76.25 0.0
31 03:55 S 6 16.09 Fair CLR 23.6 19 76% 76.25 0.0
31 03:35 S 6 16.09 Fair CLR 23.1 19.6 81% 76.25 0.0
31 03:15 Calm 16.09 Fair CLR 23 19.6 81% 76.25 0.0
31 02:55 Calm 16.09 Fair CLR 23.1 19.6 81% 76.25 0.0
31 02:35 Calm 16.09 Fair CLR 23.3 19.7 80% 76.25 0.0
31 01:55 Calm 16.09 Fair CLR 23.2 20.1 25.6 22 83% 76.28 0.0
31 01:35 Calm 16.09 Fair CLR 23.1 20.7 86% 76.28 0.0
31 00:55 Calm 16.09 Fair CLR 22.1 20.5 91% 76.3 0.0
31 00:35 Calm 16.09 Partly Cloudy SCT120 22.1 20.4 90% 76.3 0.0
31 00:15 Calm 16.09 Fair CLR 22.7 20.5 87% 76.3 0.0
30 23:35 Calm 16.09 Fair CLR 23.2 20.5 85% 76.28 0.0
30 22:55 Calm 16.09 Fair CLR 24.6 20.8 79% 25 76.25 0.0
30 22:35 Calm 16.09 Fair CLR 24.8 20.7 78% 26 76.28 0.0
30 22:15 SE 9 16.09 Fair CLR 24.5 21.4 83% 25 76.28 0.0
30 21:55 Calm 16.09 Fair CLR 24.6 21.3 82% 25 76.28 0.0
30 21:35 SE 6 16.09 Fair CLR 24.6 21.3 82% 25 76.28 0.0
30 21:15 SE 6 16.09 Fair CLR 24.7 21.3 81% 25 76.28 0.0
30 20:55 SE 7 16.09 Fair CLR 24.5 21.1 81% 25 76.28 0.0
30 20:35 E 6 16.09 Fair CLR 24.5 21 81% 25 76.25 0.0
30 20:15 Calm 16.09 Fair CLR 25 21 79% 26 76.25 0.0
30 19:55 Calm 16.09 Fair CLR 25.5 20.8 28.2 24.3 75% 27 76.28 0.0
30 19:35 Calm 16.09 Fair CLR 25.7 21.4 77% 27 76.28 0.0
30 19:15 Calm 16.09 Fair CLR 26 22 79% 28 76.28 0.0
30 18:55 Calm 16.09 Fair CLR 26.3 21.5 75% 28 76.3 0.0
30 18:35 Calm 16.09 Fair CLR 26.8 21.7 74% 29 76.3 0.0
30 18:15 Calm 16.09 Fair CLR 27.3 21.1 69% 29 76.3 0.0
30 17:55 Calm 16.09 Fair CLR 27.1 20.5 67% 29 76.3 0.0
30 17:35 Calm 16.09 Fair CLR 27.2 20.2 66% 29 76.3 0.0
30 17:15 Calm 16.09 Fair CLR 27.5 20.2 64% 29 76.3 0.0
30 16:55 S 9 16.09 Fair CLR 27.3 20 64% 29 76.3 0.0
30 16:35 S 11 16.09 Fair CLR 26.9 19.7 65% 28 76.3 0.0
30 16:15 S 15 16.09 Fair CLR 26.5 19.1 64% 28 76.28 0.0
30 15:55 S 19 G 28 16.09 Fair CLR 26.5 18.6 62% 28 76.3 0.0
30 15:35 S 24 G 30 16.09 Fair CLR 27.5 18.6 58% 29 76.33 0.0
30 15:15 S 24 G 31 16.09 Fair CLR 28.1 19.2 59% 29 76.35 0.0
30 14:55 S 20 16.09 Fair CLR 27.3 19.6 63% 29 76.35 0.0
30 14:35 S 17 G 28 16.09 Fair CLR 27.1 19.8 64% 29 76.38 0.0
30 14:15 S 17 16.09 Fair CLR 25.9 19.3 67% 27 76.38 0.0
30 13:55 S 9 16.09 Fair CLR 24.2 18.6 24.2 20.2 71% 25 76.35 0.0
30 13:35 Calm 16.09 Fair CLR 23.7 18.2 71% 76.38 0.0
30 13:15 Calm 16.09 Partly Cloudy SCT075 SCT085 SCT110 23.6 18.1 71% 76.38 0.0
30 12:55 Calm 16.09 Light Rain SCT075 SCT085 SCT110 23.4 18.1 72% 76.43 0.0
30 12:35 Calm 16.09 Fair CLR 23.5 18.2 72% 76.48 0.0
30 12:15 Calm 16.09 Fair CLR 23.1 18.2 74% 76.48 0.0
30 11:55 Calm 16.09 Fair CLR 22.8 18.2 75% 76.5 0.0
30 11:35 Calm 16.09 Fair CLR 22.5 18.1 76% 76.5 0.0
30 11:15 Calm 16.09 Fair CLR 21.9 17.9 78% 76.5 0.0
30 10:55 Calm 16.09 Partly Cloudy SCT120 21.6 17.9 80% 76.48 0.0
30 10:35 Calm 16.09 Partly Cloudy SCT120 21 18.1 84% 76.48 0.0
30 10:15 Calm 16.09 Mostly Cloudy SCT055 SCT085 BKN120 21 17.6 81% 76.48 0.0
30 09:55 Calm 16.09 Mostly Cloudy BKN120 21.1 17 78% 76.45 0.0
30 09:35 Calm 16.09 Partly Cloudy SCT120 21.3 16.6 75% 76.4 0.0
30 09:15 Calm 16.09 Mostly Cloudy BKN120 21 16.3 75% 76.4 0.0
Date Time (edt) Wind (kph) Vis. (km) Weather Sky Cond. Air Dwpt Max. Min. Relative Humidity Wind Chill (°C) Heat Index (°C) altimeter (cm) sea level (mb) 1 hr 3 hr 6 hr
6 hour
Temperature (ºC) Pressure Precipitation (cm)